createdAt,value
2023-03-16T00:00:17.261Z,1015.98
2023-03-16T00:00:26.984Z,1016.03
2023-03-16T00:00:36.090Z,1016.03
2023-03-16T00:00:45.448Z,1016.00
2023-03-16T00:00:54.836Z,1016.04
2023-03-16T00:01:04.226Z,1015.98
2023-03-16T00:01:13.633Z,1015.89
2023-03-16T00:01:23.036Z,1015.99
2023-03-16T00:01:32.406Z,1016.01
2023-03-16T00:01:41.863Z,1015.90
2023-03-16T00:01:51.301Z,1015.93
2023-03-16T00:02:00.652Z,1015.92
2023-03-16T00:02:10.211Z,1015.94
2023-03-16T00:02:19.506Z,1015.97
2023-03-16T00:02:28.855Z,1015.94
2023-03-16T00:02:38.219Z,1016.01
2023-03-16T00:02:57.049Z,1015.96
2023-03-16T00:03:06.450Z,1015.99
2023-03-16T00:03:15.822Z,1016.00
2023-03-16T00:03:25.215Z,1015.95
2023-03-16T00:03:34.722Z,1016.00
2023-03-16T00:03:43.979Z,1016.05
2023-03-16T00:03:53.370Z,1016.07
2023-03-16T00:04:02.759Z,1016.06
2023-03-16T00:04:12.192Z,1016.01
2023-03-16T00:04:21.668Z,1016.06
2023-03-16T00:04:31.078Z,1016.00
2023-03-16T00:04:40.467Z,1016.06
2023-03-16T00:04:49.849Z,1016.05
2023-03-16T00:04:59.467Z,1015.98
2023-03-16T00:05:08.872Z,1016.06
2023-03-16T00:05:18.293Z,1016.09
2023-03-16T00:05:37.095Z,1016.08
2023-03-16T00:05:46.554Z,1016.03
2023-03-16T00:05:55.953Z,1016.01
2023-03-16T00:06:05.378Z,1016.05
2023-03-16T00:06:14.769Z,1015.93
2023-03-16T00:06:25.736Z,1016.06
2023-03-16T00:06:33.563Z,1016.06
2023-03-16T00:06:42.975Z,1016.13
2023-03-16T00:06:52.352Z,1016.03
2023-03-16T00:07:01.739Z,1016.11
2023-03-16T00:07:11.123Z,1015.95
2023-03-16T00:07:20.509Z,1016.07
2023-03-16T00:07:29.884Z,1016.00
2023-03-16T00:07:39.300Z,1015.96
2023-03-16T00:07:48.681Z,1016.07
2023-03-16T00:07:58.070Z,1015.99
2023-03-16T00:08:16.864Z,1016.03
2023-03-16T00:08:26.267Z,1016.06
2023-03-16T00:08:35.664Z,1016.06
2023-03-16T00:08:45.061Z,1016.07
2023-03-16T00:08:54.457Z,1016.00
2023-03-16T00:09:03.850Z,1016.14
2023-03-16T00:09:13.240Z,1016.09
2023-03-16T00:09:22.641Z,1016.04
2023-03-16T00:09:32.029Z,1016.09
2023-03-16T00:09:41.559Z,1016.07
2023-03-16T00:09:50.837Z,1016.09
2023-03-16T00:10:00.236Z,1016.09
2023-03-16T00:10:09.595Z,1016.12
2023-03-16T00:10:19.035Z,1016.09
2023-03-16T00:10:28.752Z,1016.12
2023-03-16T00:10:47.192Z,1016.08
2023-03-16T00:10:56.596Z,1016.12
2023-03-16T00:11:06.038Z,1016.16
2023-03-16T00:11:15.536Z,1016.13
2023-03-16T00:11:24.932Z,1016.12
2023-03-16T00:11:34.312Z,1016.18
2023-03-16T00:11:43.718Z,1016.11
2023-03-16T00:11:53.287Z,1016.10
2023-03-16T00:12:02.676Z,1016.11
2023-03-16T00:12:12.065Z,1016.08
2023-03-16T00:12:21.471Z,1016.09
2023-03-16T00:12:30.866Z,1016.02
2023-03-16T00:12:40.259Z,1016.08
2023-03-16T00:12:49.628Z,1016.11
2023-03-16T00:12:59.012Z,1016.09
2023-03-16T00:13:08.414Z,1016.17
2023-03-16T00:13:27.224Z,1016.06
2023-03-16T00:13:36.610Z,1016.12
2023-03-16T00:13:45.986Z,1016.14
2023-03-16T00:13:55.384Z,1016.13
2023-03-16T00:14:04.779Z,1016.15
2023-03-16T00:14:14.170Z,1016.16
2023-03-16T00:14:23.554Z,1016.16
2023-03-16T00:14:32.937Z,1016.20
2023-03-16T00:14:42.324Z,1016.18
2023-03-16T00:14:51.715Z,1016.14
2023-03-16T00:15:01.110Z,1016.17
2023-03-16T00:15:10.499Z,1016.15
2023-03-16T00:15:19.924Z,1016.09
2023-03-16T00:15:29.303Z,1016.13
2023-03-16T00:15:38.692Z,1016.14
2023-03-16T00:15:48.117Z,1016.21
2023-03-16T00:16:07.101Z,1016.11
2023-03-16T00:16:16.314Z,1016.11
2023-03-16T00:16:25.700Z,1016.13
2023-03-16T00:16:35.121Z,1016.09
2023-03-16T00:16:44.666Z,1016.16
2023-03-16T00:16:53.960Z,1016.15
2023-03-16T00:17:03.355Z,1016.16
2023-03-16T00:17:12.762Z,1016.15
2023-03-16T00:17:22.143Z,1016.15
2023-03-16T00:17:31.545Z,1016.17
2023-03-16T00:17:40.952Z,1016.14
2023-03-16T00:17:50.350Z,1016.11
2023-03-16T00:17:59.755Z,1016.13
2023-03-16T00:18:09.138Z,1016.17
2023-03-16T00:18:18.532Z,1016.12
2023-03-16T00:18:27.904Z,1016.09
2023-03-16T00:18:46.682Z,1016.15
2023-03-16T00:18:56.070Z,1016.16
2023-03-16T00:19:05.449Z,1016.20
2023-03-16T00:19:14.847Z,1016.16
2023-03-16T00:19:24.223Z,1016.15
2023-03-16T00:19:33.606Z,1016.12
2023-03-16T00:19:43.009Z,1016.17
2023-03-16T00:19:52.384Z,1016.08
2023-03-16T00:20:01.764Z,1016.19
2023-03-16T00:20:11.175Z,1016.16
2023-03-16T00:20:20.597Z,1016.13
2023-03-16T00:20:29.996Z,1016.04
2023-03-16T00:20:39.446Z,1016.13
2023-03-16T00:20:48.806Z,1016.22
2023-03-16T00:20:58.237Z,1016.11
2023-03-16T00:21:17.040Z,1016.10
2023-03-16T00:21:26.420Z,1016.21
2023-03-16T00:21:35.823Z,1016.16
2023-03-16T00:21:45.214Z,1016.11
2023-03-16T00:21:54.608Z,1016.12
2023-03-16T00:22:04.038Z,1016.14
2023-03-16T00:22:13.429Z,1016.14
2023-03-16T00:22:22.818Z,1016.07
2023-03-16T00:22:32.216Z,1016.13
2023-03-16T00:22:41.595Z,1016.16
2023-03-16T00:22:50.972Z,1016.10
2023-03-16T00:23:00.367Z,1016.04
2023-03-16T00:23:09.757Z,1016.13
2023-03-16T00:23:19.162Z,1016.13
2023-03-16T00:23:28.537Z,1016.12
2023-03-16T00:23:37.922Z,1016.16
2023-03-16T00:23:56.710Z,1016.08
2023-03-16T00:24:06.104Z,1016.05
2023-03-16T00:24:15.489Z,1016.08
2023-03-16T00:24:24.906Z,1016.10
2023-03-16T00:24:34.290Z,1016.10
2023-03-16T00:24:43.684Z,1016.18
2023-03-16T00:24:53.046Z,1016.09
2023-03-16T00:25:02.454Z,1016.19
2023-03-16T00:25:11.847Z,1016.15
2023-03-16T00:25:21.297Z,1016.15
2023-03-16T00:25:30.688Z,1016.16
2023-03-16T00:25:40.085Z,1016.10
2023-03-16T00:25:49.471Z,1016.06
2023-03-16T00:25:58.962Z,1016.06
2023-03-16T00:26:08.276Z,1016.18
2023-03-16T00:26:27.124Z,1016.03
2023-03-16T00:26:36.516Z,1016.11
2023-03-16T00:26:45.912Z,1016.16
2023-03-16T00:26:55.342Z,1016.14
2023-03-16T00:27:04.735Z,1016.12
2023-03-16T00:27:14.113Z,1016.10
2023-03-16T00:27:23.524Z,1016.14
2023-03-16T00:27:32.925Z,1016.13
2023-03-16T00:27:42.323Z,1016.19
2023-03-16T00:27:51.725Z,1016.18
2023-03-16T00:28:01.108Z,1016.16
2023-03-16T00:28:10.490Z,1016.14
2023-03-16T00:28:19.874Z,1016.13
2023-03-16T00:28:29.369Z,1016.09
2023-03-16T00:28:38.694Z,1016.12
2023-03-16T00:28:48.094Z,1016.16
2023-03-16T00:29:06.864Z,1016.15
2023-03-16T00:29:16.255Z,1016.12
2023-03-16T00:29:25.647Z,1016.16
2023-03-16T00:29:35.036Z,1016.12
2023-03-16T00:29:44.446Z,1016.17
2023-03-16T00:29:53.896Z,1016.09
2023-03-16T00:30:03.280Z,1016.11
2023-03-16T00:30:12.671Z,1015.99
2023-03-16T00:30:22.117Z,1016.13
2023-03-16T00:30:31.510Z,1016.11
2023-03-16T00:30:40.913Z,1016.04
2023-03-16T00:30:50.300Z,1016.15
2023-03-16T00:30:59.724Z,1016.13
2023-03-16T00:31:09.089Z,1016.03
2023-03-16T00:31:18.507Z,1016.03
2023-03-16T00:31:28.109Z,1016.13
2023-03-16T00:31:46.941Z,1016.07
2023-03-16T00:31:56.485Z,1016.12
2023-03-16T00:32:05.923Z,1016.11
2023-03-16T00:32:15.194Z,1016.14
2023-03-16T00:32:24.641Z,1016.12
2023-03-16T00:32:34.108Z,1016.12
2023-03-16T00:32:43.531Z,1016.15
2023-03-16T00:32:52.933Z,1016.14
2023-03-16T00:33:02.291Z,1016.05
2023-03-16T00:33:11.607Z,1016.08
2023-03-16T00:33:20.985Z,1016.19
2023-03-16T00:33:30.380Z,1016.06
2023-03-16T00:33:39.767Z,1016.10
2023-03-16T00:33:49.156Z,1016.09
2023-03-16T00:33:58.568Z,1016.06
2023-03-16T00:34:07.960Z,1016.05
2023-03-16T00:34:26.726Z,1016.07
2023-03-16T00:34:36.112Z,1016.15
2023-03-16T00:34:45.506Z,1016.11
2023-03-16T00:34:54.883Z,1016.14
2023-03-16T00:35:04.287Z,1016.05
2023-03-16T00:35:13.682Z,1016.04
2023-03-16T00:35:23.102Z,1016.20
2023-03-16T00:35:32.540Z,1016.09
2023-03-16T00:35:41.902Z,1016.09
2023-03-16T00:35:51.330Z,1016.07
2023-03-16T00:36:00.771Z,1016.09
2023-03-16T00:36:10.197Z,1016.10
2023-03-16T00:36:19.464Z,1016.05
2023-03-16T00:36:28.863Z,1016.05
2023-03-16T00:36:38.304Z,1016.00
2023-03-16T00:36:57.088Z,1016.08
2023-03-16T00:37:06.545Z,1016.10
2023-03-16T00:37:15.944Z,1016.12
2023-03-16T00:37:25.296Z,1016.03
2023-03-16T00:37:34.684Z,1016.10
2023-03-16T00:37:44.105Z,1016.07
2023-03-16T00:37:53.462Z,1016.23
2023-03-16T00:38:02.816Z,1016.09
2023-03-16T00:38:12.219Z,1016.19
2023-03-16T00:38:21.613Z,1016.22
2023-03-16T00:38:31.009Z,1016.18
2023-03-16T00:38:40.608Z,1016.12
2023-03-16T00:38:49.998Z,1016.10
2023-03-16T00:38:59.391Z,1016.15
2023-03-16T00:39:08.776Z,1016.12
2023-03-16T00:39:18.160Z,1016.14
2023-03-16T00:39:36.943Z,1016.15
2023-03-16T00:39:46.349Z,1016.14
2023-03-16T00:39:55.750Z,1016.16
2023-03-16T00:40:05.184Z,1016.16
2023-03-16T00:40:14.624Z,1016.11
2023-03-16T00:40:24.014Z,1016.23
2023-03-16T00:40:33.360Z,1016.16
2023-03-16T00:40:42.776Z,1016.17
2023-03-16T00:40:52.273Z,1016.23
2023-03-16T00:41:01.681Z,1016.24
2023-03-16T00:41:11.080Z,1016.20
2023-03-16T00:41:20.481Z,1016.22
2023-03-16T00:41:29.861Z,1016.26
2023-03-16T00:41:39.241Z,1016.25
2023-03-16T00:41:48.619Z,1016.30
2023-03-16T00:41:58.023Z,1016.08
2023-03-16T00:42:16.892Z,1016.17
2023-03-16T00:42:26.290Z,1016.23
2023-03-16T00:42:35.682Z,1016.25
2023-03-16T00:42:45.061Z,1016.23
2023-03-16T00:42:54.450Z,1016.19
2023-03-16T00:43:03.968Z,1016.30
2023-03-16T00:43:13.352Z,1016.22
2023-03-16T00:43:22.768Z,1016.27
2023-03-16T00:43:32.198Z,1016.29
2023-03-16T00:43:41.603Z,1016.25
2023-03-16T00:43:51.000Z,1016.23
2023-03-16T00:44:00.416Z,1016.31
2023-03-16T00:44:09.816Z,1016.26
2023-03-16T00:44:19.224Z,1016.17
2023-03-16T00:44:28.795Z,1016.39
2023-03-16T00:44:38.213Z,1016.32
2023-03-16T00:44:56.988Z,1016.28
2023-03-16T00:45:06.396Z,1016.29
2023-03-16T00:45:15.806Z,1016.25
2023-03-16T00:45:26.121Z,1016.21
2023-03-16T00:45:35.590Z,1016.21
2023-03-16T00:45:45.031Z,1016.20
2023-03-16T00:45:54.286Z,1016.30
2023-03-16T00:46:03.918Z,1016.22
2023-03-16T00:46:13.302Z,1016.20
2023-03-16T00:46:22.742Z,1016.26
2023-03-16T00:46:32.028Z,1016.21
2023-03-16T00:46:41.420Z,1016.21
2023-03-16T00:46:50.813Z,1016.21
2023-03-16T00:47:00.228Z,1016.23
2023-03-16T00:47:09.809Z,1016.23
2023-03-16T00:47:19.202Z,1016.27
2023-03-16T00:47:28.583Z,1016.24
2023-03-16T00:47:37.976Z,1016.29
2023-03-16T00:47:56.792Z,1016.26
2023-03-16T00:48:06.182Z,1016.23
2023-03-16T00:48:15.569Z,1016.21
2023-03-16T00:48:24.970Z,1016.26
2023-03-16T00:48:34.378Z,1016.22
2023-03-16T00:48:43.753Z,1016.33
2023-03-16T00:48:53.129Z,1016.10
2023-03-16T00:49:02.518Z,1016.25
2023-03-16T00:49:11.911Z,1016.22
2023-03-16T00:49:21.306Z,1016.11
2023-03-16T00:49:30.696Z,1016.19
2023-03-16T00:49:40.083Z,1016.28
2023-03-16T00:49:49.470Z,1016.24
2023-03-16T00:49:58.840Z,1016.27
2023-03-16T00:50:08.252Z,1016.20
2023-03-16T00:50:27.523Z,1016.26
2023-03-16T00:50:36.622Z,1016.22
2023-03-16T00:50:46.010Z,1016.37
2023-03-16T00:50:55.409Z,1016.34
2023-03-16T00:51:04.768Z,1016.31
2023-03-16T00:51:14.169Z,1016.34
2023-03-16T00:51:23.578Z,1016.29
2023-03-16T00:51:32.973Z,1016.30
2023-03-16T00:51:42.370Z,1016.30
2023-03-16T00:51:51.776Z,1016.29
2023-03-16T00:52:01.179Z,1016.29
2023-03-16T00:52:10.582Z,1016.26
2023-03-16T00:52:19.989Z,1016.31
2023-03-16T00:52:29.428Z,1016.27
2023-03-16T00:52:38.877Z,1016.33
2023-03-16T00:52:48.250Z,1016.30
2023-03-16T00:53:07.046Z,1016.24
2023-03-16T00:53:16.450Z,1016.31
2023-03-16T00:53:25.862Z,1016.32
2023-03-16T00:53:35.484Z,1016.27
2023-03-16T00:53:44.861Z,1016.32
2023-03-16T00:53:54.265Z,1016.23
2023-03-16T00:54:03.661Z,1016.30
2023-03-16T00:54:13.058Z,1016.20
2023-03-16T00:54:22.465Z,1016.32
2023-03-16T00:54:31.881Z,1016.32
2023-03-16T00:54:41.325Z,1016.17
2023-03-16T00:54:50.721Z,1016.32
2023-03-16T00:55:00.128Z,1016.25
2023-03-16T00:55:09.555Z,1016.28
2023-03-16T00:55:18.918Z,1016.26
2023-03-16T00:55:28.342Z,1016.35
2023-03-16T00:55:47.138Z,1016.23
2023-03-16T00:55:56.557Z,1016.28
2023-03-16T00:56:05.946Z,1016.36
2023-03-16T00:56:15.350Z,1016.33
2023-03-16T00:56:24.757Z,1016.19
2023-03-16T00:56:34.171Z,1016.30
2023-03-16T00:56:43.582Z,1016.35
2023-03-16T00:56:52.992Z,1016.21
2023-03-16T00:57:02.401Z,1016.26
2023-03-16T00:57:11.807Z,1016.26
2023-03-16T00:57:21.190Z,1016.30
2023-03-16T00:57:30.582Z,1016.29
2023-03-16T00:57:40.057Z,1016.43
2023-03-16T00:57:49.453Z,1016.23
2023-03-16T00:57:58.812Z,1016.39
2023-03-16T00:58:08.210Z,1016.37
2023-03-16T00:58:26.994Z,1016.30
2023-03-16T00:58:36.386Z,1016.31
2023-03-16T00:58:45.797Z,1016.40
2023-03-16T00:58:55.205Z,1016.36
2023-03-16T00:59:04.581Z,1016.40
2023-03-16T00:59:13.965Z,1016.38
2023-03-16T00:59:23.372Z,1016.38
2023-03-16T00:59:32.754Z,1016.36
2023-03-16T00:59:42.183Z,1016.36
2023-03-16T00:59:51.568Z,1016.37
2023-03-16T01:00:00.990Z,1016.32
2023-03-16T01:00:10.373Z,1016.32
2023-03-16T01:00:19.763Z,1016.41
2023-03-16T01:00:29.608Z,1016.41
2023-03-16T01:00:38.596Z,1016.42
2023-03-16T01:00:48.037Z,1016.42
2023-03-16T01:01:06.877Z,1016.41
2023-03-16T01:01:16.348Z,1016.41
2023-03-16T01:01:25.685Z,1016.35
2023-03-16T01:01:35.097Z,1016.42
2023-03-16T01:01:44.444Z,1016.40
2023-03-16T01:01:53.874Z,1016.35
2023-03-16T01:02:03.286Z,1016.49
2023-03-16T01:02:12.698Z,1016.44
2023-03-16T01:02:22.105Z,1016.40
2023-03-16T01:02:31.746Z,1016.41
2023-03-16T01:02:41.152Z,1016.34
2023-03-16T01:02:50.631Z,1016.39
2023-03-16T01:03:00.052Z,1016.44
2023-03-16T01:03:09.458Z,1016.46
2023-03-16T01:03:18.906Z,1016.46
2023-03-16T01:03:28.285Z,1016.49
2023-03-16T01:03:47.196Z,1016.33
2023-03-16T01:03:56.638Z,1016.38
2023-03-16T01:04:06.020Z,1016.46
2023-03-16T01:04:15.435Z,1016.44
2023-03-16T01:04:24.835Z,1016.41
2023-03-16T01:04:34.240Z,1016.42
2023-03-16T01:04:43.602Z,1016.40
2023-03-16T01:04:52.988Z,1016.38
2023-03-16T01:05:02.382Z,1016.46
2023-03-16T01:05:11.761Z,1016.47
2023-03-16T01:05:21.154Z,1016.39
2023-03-16T01:05:30.575Z,1016.46
2023-03-16T01:05:39.949Z,1016.45
2023-03-16T01:05:49.346Z,1016.46
2023-03-16T01:05:58.728Z,1016.35
2023-03-16T01:06:08.128Z,1016.42
2023-03-16T01:06:26.889Z,1016.41
2023-03-16T01:06:38.799Z,1016.43
2023-03-16T01:06:45.677Z,1016.39
2023-03-16T01:06:55.063Z,1016.53
2023-03-16T01:07:04.483Z,1016.40
2023-03-16T01:07:13.911Z,1016.42
2023-03-16T01:07:23.290Z,1016.49
2023-03-16T01:07:32.708Z,1016.46
2023-03-16T01:07:42.217Z,1016.41
2023-03-16T01:07:51.612Z,1016.41
2023-03-16T01:08:00.996Z,1016.45
2023-03-16T01:08:10.366Z,1016.47
2023-03-16T01:08:19.757Z,1016.45
2023-03-16T01:08:29.163Z,1016.37
2023-03-16T01:08:38.586Z,1016.37
2023-03-16T01:08:47.994Z,1016.37
2023-03-16T01:09:06.734Z,1016.45
2023-03-16T01:09:16.120Z,1016.40
2023-03-16T01:09:25.515Z,1016.41
2023-03-16T01:09:34.911Z,1016.33
2023-03-16T01:09:44.326Z,1016.40
2023-03-16T01:09:53.748Z,1016.44
2023-03-16T01:10:03.175Z,1016.47
2023-03-16T01:10:12.566Z,1016.37
2023-03-16T01:10:21.953Z,1016.39
2023-03-16T01:10:31.404Z,1016.32
2023-03-16T01:10:40.783Z,1016.36
2023-03-16T01:10:50.161Z,1016.48
2023-03-16T01:10:59.539Z,1016.42
2023-03-16T01:11:08.938Z,1016.43
2023-03-16T01:11:18.330Z,1016.43
2023-03-16T01:11:37.110Z,1016.45
2023-03-16T01:11:46.497Z,1016.45
2023-03-16T01:11:55.890Z,1016.53
2023-03-16T01:12:05.278Z,1016.43
2023-03-16T01:12:14.670Z,1016.40
2023-03-16T01:12:24.071Z,1016.42
2023-03-16T01:12:33.461Z,1016.44
2023-03-16T01:12:42.864Z,1016.47
2023-03-16T01:12:52.248Z,1016.47
2023-03-16T01:13:01.659Z,1016.50
2023-03-16T01:13:11.042Z,1016.50
2023-03-16T01:13:20.429Z,1016.49
2023-03-16T01:13:29.829Z,1016.45
2023-03-16T01:13:39.188Z,1016.48
2023-03-16T01:13:48.574Z,1016.48
2023-03-16T01:13:57.977Z,1016.47
2023-03-16T01:14:16.830Z,1016.45
2023-03-16T01:14:26.234Z,1016.47
2023-03-16T01:14:35.655Z,1016.48
2023-03-16T01:14:45.076Z,1016.43
2023-03-16T01:14:54.482Z,1016.44
2023-03-16T01:15:03.896Z,1016.48
2023-03-16T01:15:13.286Z,1016.43
2023-03-16T01:15:22.724Z,1016.46
2023-03-16T01:15:32.155Z,1016.48
2023-03-16T01:15:41.602Z,1016.44
2023-03-16T01:15:50.988Z,1016.43
2023-03-16T01:16:00.394Z,1016.44
2023-03-16T01:16:09.850Z,1016.37
2023-03-16T01:16:19.357Z,1016.46
2023-03-16T01:16:28.678Z,1016.40
2023-03-16T01:16:38.079Z,1016.38
2023-03-16T01:16:56.817Z,1016.38
2023-03-16T01:17:06.381Z,1016.42
2023-03-16T01:17:15.591Z,1016.42
2023-03-16T01:17:24.986Z,1016.41
2023-03-16T01:17:34.377Z,1016.33
2023-03-16T01:17:43.766Z,1016.38
2023-03-16T01:17:53.180Z,1016.38
2023-03-16T01:18:02.579Z,1016.42
2023-03-16T01:18:11.956Z,1016.43
2023-03-16T01:18:21.422Z,1016.43
2023-03-16T01:18:30.821Z,1016.45
2023-03-16T01:18:40.235Z,1016.54
2023-03-16T01:18:49.628Z,1016.48
2023-03-16T01:18:59.026Z,1016.48
2023-03-16T01:19:08.431Z,1016.55
2023-03-16T01:19:27.197Z,1016.58
2023-03-16T01:19:36.625Z,1016.53
2023-03-16T01:19:45.976Z,1016.52
2023-03-16T01:19:55.396Z,1016.54
2023-03-16T01:20:04.908Z,1016.60
2023-03-16T01:20:14.288Z,1016.60
2023-03-16T01:20:23.715Z,1016.67
2023-03-16T01:20:33.137Z,1016.61
2023-03-16T01:20:42.528Z,1016.65
2023-03-16T01:20:52.052Z,1016.63
2023-03-16T01:21:01.494Z,1016.68
2023-03-16T01:21:10.872Z,1016.60
2023-03-16T01:21:20.350Z,1016.66
2023-03-16T01:21:29.741Z,1016.69
2023-03-16T01:21:39.124Z,1016.65
2023-03-16T01:21:48.542Z,1016.70
2023-03-16T01:21:57.931Z,1016.72
2023-03-16T01:22:16.711Z,1016.75
2023-03-16T01:22:26.350Z,1016.77
2023-03-16T01:22:35.534Z,1016.79
2023-03-16T01:22:44.935Z,1016.74
2023-03-16T01:22:54.326Z,1016.76
2023-03-16T01:23:03.736Z,1016.72
2023-03-16T01:23:13.140Z,1016.70
2023-03-16T01:23:22.540Z,1016.80
2023-03-16T01:23:31.906Z,1016.74
2023-03-16T01:23:41.298Z,1016.71
2023-03-16T01:23:50.702Z,1016.71
2023-03-16T01:24:00.107Z,1016.78
2023-03-16T01:24:09.460Z,1016.76
2023-03-16T01:24:18.848Z,1016.74
2023-03-16T01:24:28.251Z,1016.79
2023-03-16T01:24:47.022Z,1016.81
2023-03-16T01:24:56.407Z,1016.79
2023-03-16T01:25:05.800Z,1016.85
2023-03-16T01:25:15.194Z,1016.78
2023-03-16T01:25:24.567Z,1016.79
2023-03-16T01:25:33.982Z,1016.78
2023-03-16T01:25:43.349Z,1016.82
2023-03-16T01:25:52.741Z,1016.75
2023-03-16T01:26:02.152Z,1016.71
2023-03-16T01:26:11.555Z,1016.76
2023-03-16T01:26:20.938Z,1016.75
2023-03-16T01:26:30.316Z,1016.78
2023-03-16T01:26:39.723Z,1016.71
2023-03-16T01:26:49.106Z,1016.72
2023-03-16T01:26:58.477Z,1016.71
2023-03-16T01:27:17.274Z,1016.76
2023-03-16T01:27:26.673Z,1016.73
2023-03-16T01:27:36.067Z,1016.91
2023-03-16T01:27:45.478Z,1016.73
2023-03-16T01:27:54.895Z,1016.80
2023-03-16T01:28:04.297Z,1016.77
2023-03-16T01:28:13.699Z,1016.79
2023-03-16T01:28:23.099Z,1016.80
2023-03-16T01:28:32.499Z,1016.78
2023-03-16T01:28:41.859Z,1016.75
2023-03-16T01:28:51.262Z,1016.73
2023-03-16T01:29:00.690Z,1016.79
2023-03-16T01:29:10.056Z,1016.72
2023-03-16T01:29:19.432Z,1016.76
2023-03-16T01:29:28.829Z,1016.77
2023-03-16T01:29:38.256Z,1016.79
2023-03-16T01:29:57.040Z,1016.75
2023-03-16T01:30:06.455Z,1016.75
2023-03-16T01:30:15.842Z,1016.80
2023-03-16T01:30:25.875Z,1016.71
2023-03-16T01:30:34.784Z,1016.73
2023-03-16T01:30:44.269Z,1016.81
2023-03-16T01:30:53.634Z,1016.78
2023-03-16T01:31:03.051Z,1016.81
2023-03-16T01:31:12.580Z,1016.82
2023-03-16T01:31:22.026Z,1016.78
2023-03-16T01:31:31.307Z,1016.81
2023-03-16T01:31:40.694Z,1016.82
2023-03-16T01:31:50.087Z,1016.81
2023-03-16T01:31:59.513Z,1016.90
2023-03-16T01:32:08.889Z,1016.80
2023-03-16T01:32:18.288Z,1016.87
2023-03-16T01:32:37.090Z,1016.80
2023-03-16T01:32:46.678Z,1016.89
2023-03-16T01:32:56.074Z,1016.85
2023-03-16T01:33:05.581Z,1016.84
2023-03-16T01:33:14.889Z,1016.84
2023-03-16T01:33:24.281Z,1016.92
2023-03-16T01:33:33.769Z,1016.90
2023-03-16T01:33:43.081Z,1016.89
2023-03-16T01:33:52.530Z,1016.91
2023-03-16T01:34:01.971Z,1016.95
2023-03-16T01:34:11.442Z,1016.95
2023-03-16T01:34:20.848Z,1016.86
2023-03-16T01:34:30.271Z,1016.90
2023-03-16T01:34:39.685Z,1016.77
2023-03-16T01:34:49.073Z,1016.83
2023-03-16T01:34:58.465Z,1016.80
2023-03-16T01:35:07.884Z,1016.80
2023-03-16T01:35:26.761Z,1016.87
2023-03-16T01:35:36.302Z,1016.87
2023-03-16T01:35:45.580Z,1016.82
2023-03-16T01:35:55.150Z,1016.86
2023-03-16T01:36:04.512Z,1016.82
2023-03-16T01:36:13.755Z,1016.86
2023-03-16T01:36:23.146Z,1016.96
2023-03-16T01:36:32.564Z,1016.87
2023-03-16T01:36:41.986Z,1016.92
2023-03-16T01:36:51.411Z,1016.84
2023-03-16T01:37:00.818Z,1016.94
2023-03-16T01:37:10.244Z,1016.81
2023-03-16T01:37:19.635Z,1016.83
2023-03-16T01:37:29.077Z,1016.79
2023-03-16T01:37:38.463Z,1016.83
2023-03-16T01:37:57.260Z,1016.90
2023-03-16T01:38:06.655Z,1016.92
2023-03-16T01:38:16.048Z,1016.89
2023-03-16T01:38:25.451Z,1016.98
2023-03-16T01:38:34.824Z,1016.90
2023-03-16T01:38:44.221Z,1016.91
2023-03-16T01:38:53.613Z,1016.98
2023-03-16T01:39:02.999Z,1016.84
2023-03-16T01:39:12.402Z,1016.97
2023-03-16T01:39:21.803Z,1016.91
2023-03-16T01:39:31.190Z,1017.02
2023-03-16T01:39:40.568Z,1016.87
2023-03-16T01:39:49.986Z,1016.98
2023-03-16T01:39:59.372Z,1017.00
2023-03-16T01:40:08.775Z,1016.97
2023-03-16T01:40:18.205Z,1016.95
2023-03-16T01:40:37.014Z,1016.94
2023-03-16T01:40:46.427Z,1016.94
2023-03-16T01:40:55.941Z,1016.94
2023-03-16T01:41:05.326Z,1016.93
2023-03-16T01:41:14.733Z,1016.99
2023-03-16T01:41:24.124Z,1017.01
2023-03-16T01:41:33.528Z,1017.01
2023-03-16T01:41:42.917Z,1017.02
2023-03-16T01:41:52.329Z,1017.01
2023-03-16T01:42:01.706Z,1016.94
2023-03-16T01:42:11.120Z,1016.96
2023-03-16T01:42:20.528Z,1016.90
2023-03-16T01:42:29.950Z,1016.93
2023-03-16T01:42:39.332Z,1016.97
2023-03-16T01:42:48.816Z,1016.97
2023-03-16T01:42:58.206Z,1016.95
2023-03-16T01:43:17.249Z,1017.03
2023-03-16T01:43:26.652Z,1016.98
2023-03-16T01:43:36.036Z,1016.98
2023-03-16T01:43:45.430Z,1017.01
2023-03-16T01:43:54.874Z,1017.06
2023-03-16T01:44:04.275Z,1016.94
2023-03-16T01:44:13.683Z,1017.03
2023-03-16T01:44:23.086Z,1017.05
2023-03-16T01:44:32.474Z,1016.97
2023-03-16T01:44:42.074Z,1016.95
2023-03-16T01:44:51.483Z,1017.01
2023-03-16T01:45:00.924Z,1016.96
2023-03-16T01:45:10.314Z,1016.97
2023-03-16T01:45:19.719Z,1017.04
2023-03-16T01:45:29.112Z,1016.99
2023-03-16T01:45:38.540Z,1017.00
2023-03-16T01:45:48.084Z,1016.95
2023-03-16T01:46:06.864Z,1017.00
2023-03-16T01:46:16.170Z,1017.04
2023-03-16T01:46:25.672Z,1017.07
2023-03-16T01:46:34.998Z,1017.07
2023-03-16T01:46:44.379Z,1017.08
2023-03-16T01:46:53.766Z,1017.11
2023-03-16T01:47:03.179Z,1017.12
2023-03-16T01:47:12.528Z,1017.11
2023-03-16T01:47:21.919Z,1017.09
2023-03-16T01:47:31.337Z,1017.06
2023-03-16T01:47:40.736Z,1017.05
2023-03-16T01:47:50.118Z,1017.12
2023-03-16T01:47:59.522Z,1017.09
2023-03-16T01:48:09.982Z,1017.08
2023-03-16T01:48:19.393Z,1017.06
2023-03-16T01:48:28.845Z,1017.10
2023-03-16T01:48:38.266Z,1017.12
2023-03-16T01:48:57.056Z,1017.06
2023-03-16T01:49:06.452Z,1017.04
2023-03-16T01:49:15.844Z,1017.06
2023-03-16T01:49:25.304Z,1017.11
2023-03-16T01:49:34.707Z,1017.06
2023-03-16T01:49:44.117Z,1017.08
2023-03-16T01:49:53.578Z,1017.05
2023-03-16T01:50:03.005Z,1017.14
2023-03-16T01:50:12.417Z,1017.11
2023-03-16T01:50:21.830Z,1017.10
2023-03-16T01:50:31.248Z,1017.16
2023-03-16T01:50:40.683Z,1017.09
2023-03-16T01:50:50.084Z,1017.08
2023-03-16T01:50:59.504Z,1017.14
2023-03-16T01:51:08.882Z,1017.06
2023-03-16T01:51:18.282Z,1017.10
2023-03-16T01:51:37.078Z,1017.05
2023-03-16T01:51:46.514Z,1017.12
2023-03-16T01:51:55.889Z,1017.08
2023-03-16T01:52:05.282Z,1017.10
2023-03-16T01:52:14.692Z,1017.09
2023-03-16T01:52:24.089Z,1017.10
2023-03-16T01:52:33.495Z,1017.03
2023-03-16T01:52:42.904Z,1017.04
2023-03-16T01:52:52.285Z,1017.11
2023-03-16T01:53:01.691Z,1017.05
2023-03-16T01:53:11.082Z,1017.12
2023-03-16T01:53:20.499Z,1017.16
2023-03-16T01:53:29.897Z,1017.13
2023-03-16T01:53:39.317Z,1017.11
2023-03-16T01:53:48.712Z,1017.13
2023-03-16T01:53:58.124Z,1017.11
2023-03-16T01:54:16.945Z,1017.09
2023-03-16T01:54:26.321Z,1017.17
2023-03-16T01:54:35.720Z,1017.12
2023-03-16T01:54:45.122Z,1017.16
2023-03-16T01:54:54.509Z,1017.10
2023-03-16T01:55:03.909Z,1017.16
2023-03-16T01:55:13.328Z,1017.10
2023-03-16T01:55:22.938Z,1017.11
2023-03-16T01:55:32.331Z,1017.13
2023-03-16T01:55:41.785Z,1017.16
2023-03-16T01:55:51.174Z,1017.16
2023-03-16T01:56:00.560Z,1017.09
2023-03-16T01:56:09.971Z,1017.17
2023-03-16T01:56:19.543Z,1017.19
2023-03-16T01:56:28.944Z,1017.18
2023-03-16T01:56:38.342Z,1017.18
2023-03-16T01:56:57.135Z,1017.13
2023-03-16T01:57:06.553Z,1017.23
2023-03-16T01:57:15.961Z,1017.23
2023-03-16T01:57:25.385Z,1017.20
2023-03-16T01:57:34.795Z,1017.23
2023-03-16T01:57:44.231Z,1017.18
2023-03-16T01:57:53.616Z,1017.29
2023-03-16T01:58:03.051Z,1017.17
2023-03-16T01:58:12.450Z,1017.21
2023-03-16T01:58:21.837Z,1017.16
2023-03-16T01:58:31.246Z,1017.23
2023-03-16T01:58:40.614Z,1017.21
2023-03-16T01:58:50.065Z,1017.28
2023-03-16T01:58:59.496Z,1017.24
2023-03-16T01:59:08.886Z,1017.30
2023-03-16T01:59:18.297Z,1017.22
2023-03-16T01:59:37.083Z,1017.21
2023-03-16T01:59:46.488Z,1017.22
2023-03-16T01:59:55.869Z,1017.18
2023-03-16T02:00:05.273Z,1017.21
2023-03-16T02:00:14.655Z,1017.21
2023-03-16T02:00:24.053Z,1017.13
2023-03-16T02:00:33.453Z,1017.18
2023-03-16T02:00:42.861Z,1017.22
2023-03-16T02:00:52.258Z,1017.16
2023-03-16T02:01:01.739Z,1017.21